Time;durP1;ratioP1;P1;durP2;ratioP2;P2;SDS_P1;SDS_P2;PMS_P1;PMS_P2;Temp;Humidity;BMP_temperature;BMP_pressure;BME280_temperature;BME280_humidity;BME280_pressure;Samples;Min_cycle;Max_cycle;Signal;HPM_P1;HPM_P2
2022/11/19 00:01:20;;;;;;;37.30;17.00;;;;;;;-145.18;100.00;46681.88;5011741;28;20366;-72
2022/11/19 00:03:47;;;;;;;41.10;17.40;;;;;;;-145.18;100.00;46693.59;5012155;28;20271;-72
2022/11/19 00:06:18;;;;;;;38.23;16.53;;;;;;;-145.18;100.00;46685.78;5012782;28;20279;-72
2022/11/19 00:08:44;;;;;;;35.83;17.63;;;;;;;-145.18;100.00;46687.75;5012220;28;20279;-72
2022/11/19 00:11:15;;;;;;;39.50;17.37;;;;;;;-145.18;100.00;46691.66;5012482;28;20263;-72
2022/11/19 00:13:41;;;;;;;35.20;18.17;;;;;;;-145.18;100.00;46691.66;5004330;28;20306;-72
2022/11/19 00:16:12;;;;;;;39.47;19.00;;;;;;;-145.18;100.00;46685.78;5012539;28;20267;-73
2022/11/19 00:18:38;;;;;;;35.87;18.17;;;;;;;-145.18;100.00;46691.66;5011220;28;20271;-73
2022/11/19 00:21:06;;;;;;;42.27;19.40;;;;;;;-145.18;100.00;46699.47;5012535;28;20739;-73
2022/11/19 00:23:31;;;;;;;36.77;18.97;;;;;;;-145.18;100.00;46681.88;5012128;28;20409;-73
2022/11/19 00:26:06;;;;;;;38.13;19.37;;;;;;;-145.18;100.00;46685.78;5012136;28;20386;-73
2022/11/19 00:28:32;;;;;;;39.90;18.75;;;;;;;-145.18;100.00;46687.75;5011897;28;20111;-73
2022/11/19 00:31:08;;;;;;;39.20;18.47;;;;;;;-145.18;100.00;46683.84;5012216;28;20042;-73
2022/11/19 00:33:35;;;;;;;37.77;19.10;;;;;;;-145.18;100.00;46691.66;5011810;28;20072;-73
2022/11/19 00:36:01;;;;;;;40.97;18.87;;;;;;;-145.18;100.00;46697.50;5012301;28;20343;-73
2022/11/19 00:38:28;;;;;;;41.57;19.33;;;;;;;-145.18;100.00;46695.56;5011707;28;20279;-73
2022/11/19 00:40:53;;;;;;;40.10;19.13;;;;;;;-145.18;100.00;46689.69;5011879;28;20271;-73
2022/11/19 00:46:04;;;;;;;46.73;19.13;;;;;;;-145.18;100.00;46691.66;5012066;28;20410;-73
2022/11/19 00:48:29;;;;;;;43.20;18.67;;;;;;;-145.18;100.00;46689.69;5011412;28;20377;-73
2022/11/19 00:50:55;;;;;;;44.03;18.37;;;;;;;-145.18;100.00;46691.66;5011739;28;20268;-73
2022/11/19 00:53:20;;;;;;;46.00;19.27;;;;;;;-145.18;100.00;46693.59;5011709;28;20084;-73
2022/11/19 00:55:46;;;;;;;37.63;18.20;;;;;;;-145.18;100.00;46687.75;5011759;28;20286;-73
2022/11/19 00:58:11;;;;;;;37.50;18.07;;;;;;;-145.18;100.00;46695.56;5011430;28;20069;-73
2022/11/19 01:00:37;;;;;;;42.57;18.93;;;;;;;-145.18;100.00;46689.69;5011216;28;20030;-73
2022/11/19 01:03:03;;;;;;;38.93;20.13;;;;;;;-145.18;100.00;46701.41;5011584;28;20409;-73
2022/11/19 01:05:28;;;;;;;38.20;18.97;;;;;;;-145.18;100.00;46697.50;5011183;28;20358;-73
2022/11/19 01:07:53;;;;;;;39.40;20.00;;;;;;;-145.18;100.00;46691.66;5011244;28;20076;-73
2022/11/19 01:10:19;;;;;;;46.43;21.13;;;;;;;-145.18;100.00;46689.69;5011417;28;20113;-73
2022/11/19 01:15:28;;;;;;;38.87;19.80;;;;;;;-145.18;100.00;46693.59;5011295;28;20533;-73
2022/11/19 01:17:53;;;;;;;35.40;18.70;;;;;;;-145.18;100.00;46695.56;5010978;28;20276;-73
2022/11/19 01:20:18;;;;;;;47.33;20.50;;;;;;;-145.18;100.00;46691.66;5010744;28;20121;-73
2022/11/19 01:22:45;;;;;;;39.43;20.87;;;;;;;-145.18;100.00;46703.38;5010819;28;20034;-73
2022/11/19 01:25:11;;;;;;;43.03;19.93;;;;;;;-145.18;100.00;46695.56;5010892;28;20040;-73
2022/11/19 01:27:36;;;;;;;36.73;20.67;;;;;;;-145.18;100.00;46695.56;5010457;28;20307;-73
2022/11/19 01:30:03;;;;;;;40.43;20.00;;;;;;;-145.18;100.00;46693.59;5010712;28;20282;-73
2022/11/19 01:32:29;;;;;;;38.83;19.07;;;;;;;-145.18;100.00;46693.59;5010544;28;20497;-73
2022/11/19 01:34:54;;;;;;;35.50;19.40;;;;;;;-145.18;100.00;46693.59;5010943;28;20359;-73
2022/11/19 01:37:19;;;;;;;40.97;19.83;;;;;;;-145.18;100.00;46689.69;5010834;28;20394;-73
2022/11/19 01:39:45;;;;;;;41.20;19.87;;;;;;;-145.18;100.00;46697.50;5010612;28;20041;-73
2022/11/19 01:42:48;;;;;;;39.77;19.80;;;;;;;-145.18;100.00;46691.66;5010778;28;20160;-73
2022/11/19 01:45:17;;;;;;;38.33;18.63;;;;;;;-145.18;100.00;46691.66;5010640;28;20065;-73
2022/11/19 01:47:42;;;;;;;41.22;21.17;;;;;;;-145.18;100.00;46689.69;5010187;28;20898;-73
2022/11/19 01:50:08;;;;;;;39.10;20.93;;;;;;;-145.18;100.00;46689.69;5011150;28;20093;-72
2022/11/19 01:52:33;;;;;;;36.50;19.33;;;;;;;-145.18;100.00;46691.66;5010642;28;20095;-72
2022/11/19 01:55:00;;;;;;;38.20;19.63;;;;;;;-145.18;100.00;46697.50;5010771;28;20105;-72
2022/11/19 01:57:26;;;;;;;35.10;19.03;;;;;;;-145.18;100.00;46691.66;5010732;28;20044;-73
2022/11/19 01:59:52;;;;;;;35.30;18.87;;;;;;;-145.18;100.00;46691.66;5010611;28;20628;-72
2022/11/19 02:02:18;;;;;;;36.07;17.90;;;;;;;-145.18;100.00;46695.56;5010493;28;20029;-72
2022/11/19 02:04:44;;;;;;;28.80;15.03;;;;;;;-145.18;100.00;46699.47;5010501;28;20026;-72
2022/11/19 02:07:11;;;;;;;35.43;18.73;;;;;;;-145.18;100.00;46691.66;5010593;28;20318;-72
2022/11/19 02:09:38;;;;;;;33.80;19.23;;;;;;;-145.18;100.00;46697.50;5010408;28;20064;-73
2022/11/19 02:12:06;;;;;;;29.07;17.50;;;;;;;-145.18;100.00;46699.47;5010541;28;20763;-73
2022/11/19 02:14:34;;;;;;;35.50;19.70;;;;;;;-145.18;100.00;46699.47;5010432;28;20260;-73
2022/11/19 02:17:05;;;;;;;32.77;17.83;;;;;;;-145.18;100.00;46707.28;5010646;28;20283;-73
2022/11/19 02:19:33;;;;;;;31.47;17.67;;;;;;;-145.18;100.00;46705.31;5010193;28;20267;-73
2022/11/19 02:22:19;;;;;;;38.67;20.23;;;;;;;-145.18;100.00;46691.66;5010336;28;20271;-73
2022/11/19 02:25:00;;;;;;;33.30;16.30;;;;;;;-145.18;100.00;46701.41;5010251;28;20356;-73
2022/11/19 02:27:40;;;;;;;41.57;19.23;;;;;;;-145.18;100.00;46695.56;5009934;28;20054;-73
2022/11/19 02:30:17;;;;;;;35.70;18.07;;;;;;;-145.18;100.00;46695.56;5010441;28;20265;-73
2022/11/19 02:32:48;;;;;;;37.37;17.70;;;;;;;-145.18;100.00;46697.50;5010180;28;20267;-73
2022/11/19 02:35:50;;;;;;;42.80;18.87;;;;;;;-145.18;100.00;46695.56;4992670;28;20263;-73
2022/11/19 02:38:54;;;;;;;35.27;18.93;;;;;;;-145.18;100.00;46705.31;5010000;28;20270;-73
2022/11/19 02:41:36;;;;;;;39.13;20.47;;;;;;;-145.18;100.00;46697.50;5011650;28;20275;-73
2022/11/19 02:47:11;;;;;;;42.30;20.90;;;;;;;-145.18;100.00;46701.41;5014010;28;20298;-72
2022/11/19 02:49:42;;;;;;;39.90;20.03;;;;;;;-145.18;100.00;46697.50;5013911;28;20709;-73
2022/11/19 02:52:08;;;;;;;34.93;18.57;;;;;;;-145.18;100.00;46699.47;5013984;28;20259;-72
2022/11/19 02:54:33;;;;;;;37.03;20.73;;;;;;;-145.18;100.00;46693.59;5013959;28;20282;-73
2022/11/19 02:56:59;;;;;;;36.87;20.10;;;;;;;-145.18;100.00;46703.38;5013841;28;20030;-73
2022/11/19 03:05:34;;;;;;;35.37;20.60;;;;;;;-145.18;100.00;46703.38;4991617;28;20181;-72
2022/11/19 03:08:00;;;;;;;34.93;18.00;;;;;;;-145.18;100.00;46705.31;4993192;28;20322;-72
2022/11/19 03:10:43;;;;;;;42.43;20.83;;;;;;;-145.18;100.00;46707.28;4993522;28;20756;-72
2022/11/19 03:18:58;;;;;;;42.23;20.53;;;;;;;-145.18;100.00;46709.22;4993116;28;20660;-72
2022/11/19 03:21:32;;;;;;;33.97;19.67;;;;;;;-145.18;100.00;46705.31;4993815;28;20291;-72
2022/11/19 03:24:03;;;;;;;37.70;21.83;;;;;;;-145.18;100.00;46699.47;4992821;28;20342;-72
2022/11/19 03:26:43;;;;;;;35.63;21.50;;;;;;;-145.18;100.00;46703.38;4974436;28;20275;-73
2022/11/19 03:29:12;;;;;;;35.80;19.83;;;;;;;-145.18;100.00;46711.19;4974354;28;20303;-72
2022/11/19 03:31:42;;;;;;;39.67;21.20;;;;;;;-145.18;100.00;46711.19;4974207;28;20617;-72
2022/11/19 03:34:14;;;;;;;39.70;20.57;;;;;;;-145.18;100.00;46711.19;4974510;28;20276;-72
2022/11/19 03:36:42;;;;;;;35.03;18.50;;;;;;;-145.18;100.00;46703.38;4974088;28;20272;-72
2022/11/19 03:39:26;;;;;;;32.40;16.20;;;;;;;-145.18;100.00;46713.13;4974365;28;20656;-73
2022/11/19 03:41:53;;;;;;;33.00;19.13;;;;;;;-145.18;100.00;46711.19;4974153;28;20302;-73
2022/11/19 03:44:23;;;;;;;35.30;19.93;;;;;;;-145.18;100.00;46715.09;4974236;28;20385;-73
2022/11/19 03:46:54;;;;;;;35.90;19.10;;;;;;;-145.18;100.00;46703.38;4973528;28;20371;-73
2022/11/19 03:49:26;;;;;;;37.90;19.10;;;;;;;-145.18;100.00;46707.28;4974275;28;20303;-73
2022/11/19 03:52:01;;;;;;;38.93;20.20;;;;;;;-145.18;100.00;46707.28;4973884;28;20293;-73
2022/11/19 03:54:27;;;;;;;42.65;23.10;;;;;;;-145.18;100.00;46715.09;4974109;28;20272;-73
2022/11/19 03:56:53;;;;;;;40.07;21.60;;;;;;;-145.18;100.00;46715.09;4973382;28;20043;-73
2022/11/19 03:59:18;;;;;;;39.27;21.17;;;;;;;-145.18;100.00;46709.22;4973874;28;20541;-73
2022/11/19 04:01:47;;;;;;;38.00;20.97;;;;;;;-145.18;100.00;46705.31;4973590;28;20468;-73
2022/11/19 04:06:56;;;;;;;36.37;20.80;;;;;;;-145.18;100.00;46709.22;4973615;28;20295;-73
2022/11/19 04:09:21;;;;;;;38.00;20.53;;;;;;;-145.18;100.00;46717.03;4973758;28;20276;-73
2022/11/19 04:11:46;;;;;;;40.97;21.57;;;;;;;-145.18;100.00;46713.13;4973167;28;20031;-73
2022/11/19 04:14:12;;;;;;;40.67;21.53;;;;;;;-145.18;100.00;46711.19;4973620;28;20058;-73
2022/11/19 04:16:37;;;;;;;34.23;17.83;;;;;;;-145.18;100.00;46709.22;4973585;28;20043;-73
2022/11/19 04:19:02;;;;;;;43.13;21.80;;;;;;;-145.18;100.00;46719.00;4973078;28;20031;-73
2022/11/19 04:21:28;;;;;;;40.00;19.70;;;;;;;-145.18;100.00;46713.13;4973354;28;20058;-73
2022/11/19 04:23:53;;;;;;;44.10;23.40;;;;;;;-145.18;100.00;46713.13;4973065;28;20042;-73
2022/11/19 04:26:19;;;;;;;42.30;23.43;;;;;;;-145.18;100.00;46717.03;4973494;28;20153;-74
2022/11/19 04:28:44;;;;;;;42.83;22.47;;;;;;;-145.18;100.00;46719.00;4973275;28;20113;-73
2022/11/19 04:31:09;;;;;;;40.67;21.07;;;;;;;-145.18;100.00;46720.94;4973428;28;20038;-73
2022/11/19 04:33:35;;;;;;;39.03;21.20;;;;;;;-145.18;100.00;46719.00;4973043;28;20030;-73
2022/11/19 04:36:00;;;;;;;43.80;24.93;;;;;;;-145.18;100.00;46717.03;4973171;28;20034;-73
2022/11/19 04:38:26;;;;;;;45.73;22.83;;;;;;;-145.18;100.00;46717.03;4973052;28;20038;-73
2022/11/19 04:40:51;;;;;;;42.13;22.77;;;;;;;-145.18;100.00;46717.03;4955653;28;20480;-73
2022/11/19 04:43:16;;;;;;;48.10;25.10;;;;;;;-145.18;100.00;46715.09;4973023;28;20498;-73
2022/11/19 04:45:42;;;;;;;45.03;24.93;;;;;;;-145.18;100.00;46719.00;4972959;28;20451;-73
2022/11/19 04:48:07;;;;;;;44.10;24.37;;;;;;;-145.18;100.00;46720.94;4972953;28;20043;-73
2022/11/19 04:50:32;;;;;;;44.40;24.50;;;;;;;-145.18;100.00;46719.00;4972750;28;20038;-73
2022/11/19 04:52:58;;;;;;;43.80;23.73;;;;;;;-145.18;100.00;46715.09;4972758;28;20039;-73
2022/11/19 04:55:24;;;;;;;46.03;25.03;;;;;;;-145.18;100.00;46722.91;4973010;28;20035;-73
2022/11/19 04:57:50;;;;;;;42.47;21.57;;;;;;;-145.18;100.00;46722.91;4972457;28;20355;-73
2022/11/19 05:00:16;;;;;;;44.30;25.43;;;;;;;-145.18;100.00;46722.91;4972692;28;20038;-73
2022/11/19 05:02:42;;;;;;;42.23;24.00;;;;;;;-145.18;100.00;46726.81;4972221;28;20299;-73
2022/11/19 05:05:07;;;;;;;36.77;18.80;;;;;;;-145.18;100.00;46720.94;4972443;28;20050;-73
2022/11/19 05:07:32;;;;;;;45.60;24.13;;;;;;;-145.18;100.00;46720.94;4972508;28;20049;-73
2022/11/19 05:09:58;;;;;;;42.23;22.60;;;;;;;-145.18;100.00;46720.94;4972183;28;20117;-73
2022/11/19 05:12:23;;;;;;;42.30;23.27;;;;;;;-145.18;100.00;46722.91;4979564;28;20034;-73
2022/11/19 05:14:48;;;;;;;40.43;23.30;;;;;;;-145.18;100.00;46724.84;4990842;28;20039;-73
2022/11/19 05:17:14;;;;;;;44.83;25.43;;;;;;;-145.18;100.00;46726.81;4990675;28;20088;-73
2022/11/19 05:19:39;;;;;;;44.93;24.57;;;;;;;-145.18;100.00;46726.81;4973171;28;20037;-73
2022/11/19 05:22:04;;;;;;;44.20;25.37;;;;;;;-145.18;100.00;46728.75;4974024;28;20066;-73
2022/11/19 05:24:30;;;;;;;46.73;25.67;;;;;;;-145.18;100.00;46726.81;4988175;28;20329;-73
2022/11/19 05:26:55;;;;;;;46.17;24.57;;;;;;;-145.18;100.00;46722.91;4971812;28;20034;-74
2022/11/19 05:29:20;;;;;;;47.03;26.93;;;;;;;-145.18;100.00;46726.81;4954882;28;20027;-73
2022/11/19 05:31:46;;;;;;;44.00;22.70;;;;;;;-145.18;100.00;46728.75;4985647;28;20542;-73
2022/11/19 05:34:11;;;;;;;35.33;19.23;;;;;;;-145.18;100.00;46726.81;4990922;28;20024;-73
2022/11/19 05:36:36;;;;;;;47.17;24.63;;;;;;;-145.18;100.00;46728.75;4987353;28;20599;-73
2022/11/19 05:39:02;;;;;;;44.23;25.07;;;;;;;-145.18;100.00;46732.66;4990182;28;20038;-73
2022/11/19 05:41:27;;;;;;;42.53;23.47;;;;;;;-145.18;100.00;46728.75;4991145;28;20060;-74
2022/11/19 05:43:53;;;;;;;46.23;24.00;;;;;;;-145.18;100.00;46726.81;4973069;28;20077;-73
2022/11/19 05:46:18;;;;;;;47.57;25.67;;;;;;;-145.18;100.00;46726.81;4984278;28;20417;-73
2022/11/19 05:48:44;;;;;;;47.57;25.00;;;;;;;-145.18;100.00;46728.75;4989278;28;20395;-73
2022/11/19 05:51:13;;;;;;;48.03;25.43;;;;;;;-145.18;100.00;46728.75;4982043;28;20054;-73
2022/11/19 05:53:39;;;;;;;47.53;24.47;;;;;;;-145.18;100.00;46728.75;4972599;28;20375;-73
2022/11/19 05:56:05;;;;;;;52.53;27.73;;;;;;;-145.18;100.00;46728.75;4983809;28;20279;-73
2022/11/19 05:58:30;;;;;;;48.10;25.57;;;;;;;-145.18;100.00;46728.75;4978127;28;20481;-73
2022/11/19 06:00:58;;;;;;;41.70;21.93;;;;;;;-145.18;100.00;46728.75;4988853;28;20038;-73
2022/11/19 06:03:23;;;;;;;50.17;26.20;;;;;;;-145.18;100.00;46724.84;4985551;28;20042;-73
2022/11/19 06:05:49;;;;;;;44.83;23.17;;;;;;;-145.18;100.00;46724.84;4990890;28;20621;-73
2022/11/19 06:08:14;;;;;;;50.83;27.67;;;;;;;-145.18;100.00;46728.75;4956556;28;20088;-73
2022/11/19 06:10:39;;;;;;;42.63;22.90;;;;;;;-145.18;100.00;46734.63;4991009;28;20543;-73
2022/11/19 06:13:05;;;;;;;50.50;25.97;;;;;;;-145.18;100.00;46732.66;4973434;28;20422;-73
2022/11/19 06:15:30;;;;;;;46.83;23.93;;;;;;;-145.18;100.00;46728.75;4983254;28;20043;-73
2022/11/19 06:17:56;;;;;;;47.53;24.97;;;;;;;-145.18;100.00;46732.66;4974530;28;20035;-73
2022/11/19 06:20:21;;;;;;;51.03;26.93;;;;;;;-145.18;100.00;46728.75;4998249;28;20033;-74
2022/11/19 06:22:46;;;;;;;50.10;27.27;;;;;;;-145.18;100.00;46732.66;4998302;28;20471;-73
2022/11/19 06:25:12;;;;;;;49.27;26.30;;;;;;;-145.18;100.00;46728.75;5000518;28;20122;-72
2022/11/19 06:27:38;;;;;;;48.13;26.13;;;;;;;-145.18;100.00;46728.75;4994060;28;20049;-73
2022/11/19 06:30:04;;;;;;;50.93;25.67;;;;;;;-145.18;100.00;46728.75;4994691;28;20133;-73
2022/11/19 06:32:30;;;;;;;47.40;25.37;;;;;;;-145.18;100.00;46732.66;4994490;28;20494;-73
2022/11/19 06:34:55;;;;;;;48.53;25.80;;;;;;;-145.18;100.00;46728.75;4994281;28;20314;-73
2022/11/19 06:37:20;;;;;;;55.97;28.30;;;;;;;-145.18;100.00;46732.66;4994526;28;20042;-73
2022/11/19 06:39:46;;;;;;;47.67;23.83;;;;;;;-145.18;100.00;46728.75;4977175;28;20042;-73
2022/11/19 06:44:55;;;;;;;51.42;26.13;;;;;;;-145.18;100.00;46728.75;4994273;28;20053;-73
2022/11/19 06:47:20;;;;;;;54.50;27.23;;;;;;;-145.18;100.00;46728.75;4994128;28;20038;-73
2022/11/19 06:49:46;;;;;;;46.40;24.63;;;;;;;-145.18;100.00;46732.66;4994376;28;20034;-73
2022/11/19 06:52:11;;;;;;;56.23;27.77;;;;;;;-145.18;100.00;46726.81;4994507;28;20120;-73
2022/11/19 06:54:36;;;;;;;53.53;26.80;;;;;;;-145.18;100.00;46726.81;4994036;28;20038;-73
2022/11/19 06:57:02;;;;;;;46.33;24.23;;;;;;;-145.18;100.00;46728.75;4994008;28;20041;-73
2022/11/19 06:59:28;;;;;;;48.23;26.37;;;;;;;-145.18;100.00;46728.75;4994158;28;20030;-73
2022/11/19 07:01:53;;;;;;;53.08;25.75;;;;;;;-145.18;100.00;46726.81;4993920;28;20526;-73
2022/11/19 07:04:19;;;;;;;51.00;27.50;;;;;;;-145.18;100.00;46732.66;4993563;28;20047;-73
2022/11/19 07:06:44;;;;;;;51.87;26.83;;;;;;;-145.18;100.00;46726.81;4993952;28;20057;-73
2022/11/19 07:09:09;;;;;;;51.80;25.10;;;;;;;-145.18;100.00;46726.81;4993180;28;20486;-73
2022/11/19 07:11:35;;;;;;;51.07;27.73;;;;;;;-145.18;100.00;46726.81;4993876;28;20090;-73
2022/11/19 07:14:02;;;;;;;50.33;26.67;;;;;;;-145.18;100.00;46728.75;4986713;28;20049;-73
2022/11/19 07:16:33;;;;;;;51.47;26.13;;;;;;;-145.18;100.00;46726.81;4993490;28;20030;-73
2022/11/19 07:19:01;;;;;;;47.78;26.55;;;;;;;-145.18;100.00;46732.66;4993511;28;20483;-73
2022/11/19 07:21:28;;;;;;;58.47;25.97;;;;;;;-145.18;100.00;46724.84;5007544;28;20363;-73
2022/11/19 07:23:54;;;;;;;51.93;25.73;;;;;;;-145.18;100.00;46728.75;4987194;28;20334;-73
2022/11/19 07:26:19;;;;;;;49.83;25.70;;;;;;;-145.18;100.00;46724.84;4972625;28;20657;-72
2022/11/19 07:28:45;;;;;;;49.87;24.67;;;;;;;-145.18;100.00;46724.84;4985410;28;20291;-72
2022/11/19 07:31:10;;;;;;;47.73;24.57;;;;;;;-145.18;100.00;46722.91;4993974;28;20039;-73
2022/11/19 07:33:38;;;;;;;51.50;24.60;;;;;;;-145.18;100.00;46722.91;4993645;28;20037;-73
2022/11/19 07:36:07;;;;;;;53.20;26.17;;;;;;;-145.18;100.00;46720.94;4993683;28;20034;-73
2022/11/19 07:38:33;;;;;;;54.97;27.27;;;;;;;-145.18;100.00;46720.94;4985940;28;20327;-73
2022/11/19 07:40:58;;;;;;;54.53;27.73;;;;;;;-145.18;100.00;46717.03;4987045;28;20034;-72
2022/11/19 07:43:23;;;;;;;49.83;26.10;;;;;;;-145.18;100.00;46722.91;4998412;28;20431;-73
2022/11/19 07:45:49;;;;;;;46.23;23.73;;;;;;;-145.18;100.00;46705.31;5013272;28;20471;-72
2022/11/19 07:48:14;;;;;;;47.33;23.97;;;;;;;-145.18;100.00;46705.31;5005395;28;20082;-72
2022/11/19 07:50:40;;;;;;;39.40;20.87;;;;;;;-145.18;100.00;46709.22;4974102;28;20035;-73
2022/11/19 07:53:06;;;;;;;48.47;24.80;;;;;;;-145.18;100.00;46715.09;4974070;28;20034;-72
2022/11/19 07:55:32;;;;;;;47.75;25.48;;;;;;;-145.18;100.00;46720.94;4974439;28;20035;-72
2022/11/19 07:57:58;;;;;;;47.53;23.77;;;;;;;-145.18;100.00;46715.09;4987028;28;20027;-72
2022/11/19 08:00:23;;;;;;;51.73;24.90;;;;;;;-145.18;100.00;46715.09;4993047;28;20082;-73
2022/11/19 08:02:49;;;;;;;45.93;23.03;;;;;;;-145.18;100.00;46715.09;4992760;28;20054;-73
2022/11/19 08:05:14;;;;;;;52.13;24.63;;;;;;;-145.18;100.00;46722.91;4993144;28;20601;-74
2022/11/19 08:07:40;;;;;;;46.97;23.80;;;;;;;-145.18;100.00;46724.84;4992746;28;20037;-73
2022/11/19 08:10:06;;;;;;;47.63;24.60;;;;;;;-145.18;100.00;46722.91;4993191;28;20070;-73
2022/11/19 08:12:32;;;;;;;47.43;22.73;;;;;;;-145.18;100.00;46719.00;4993203;28;20031;-73
2022/11/19 08:14:57;;;;;;;51.67;25.53;;;;;;;-145.18;100.00;46719.00;4992716;28;20287;-72
2022/11/19 08:20:27;;;;;;;47.08;24.35;;;;;;;-145.18;100.00;46717.03;4932022;29;20481;-73
2022/11/19 08:22:52;;;;;;;47.00;24.27;;;;;;;-145.18;100.00;46701.41;4910617;29;20063;-74
2022/11/19 08:25:17;;;;;;;45.97;25.17;;;;;;;-145.18;100.00;46709.22;4946038;28;20046;-74
2022/11/19 08:27:42;;;;;;;47.73;24.80;;;;;;;-145.18;100.00;46701.41;4981101;28;20041;-73
2022/11/19 08:30:08;;;;;;;45.77;22.67;;;;;;;-145.18;100.00;46701.41;4976334;28;20039;-74
2022/11/19 08:32:35;;;;;;;53.73;25.23;;;;;;;-145.18;100.00;46695.56;4988337;28;20034;-74
2022/11/19 08:35:00;;;;;;;47.60;24.25;;;;;;;-145.18;100.00;46689.69;4991072;28;20232;-74
2022/11/19 08:37:26;;;;;;;48.10;25.20;;;;;;;-145.18;100.00;46687.75;4990493;28;20153;-73
2022/11/19 08:39:51;;;;;;;50.60;24.37;;;;;;;-145.18;100.00;46679.94;4991517;28;20526;-73
2022/11/19 08:45:00;;;;;;;45.70;25.40;;;;;;;-145.18;100.00;46658.44;5002163;28;20110;-73
2022/11/19 08:47:25;;;;;;;42.50;22.37;;;;;;;-145.18;100.00;46638.91;4983193;28;20130;-73
2022/11/19 08:49:51;;;;;;;49.73;24.47;;;;;;;-145.18;100.00;46640.88;4993019;28;20038;-73
2022/11/19 08:52:16;;;;;;;45.63;23.60;;;;;;;-145.18;100.00;46640.88;4992175;28;20038;-73
2022/11/19 08:54:41;;;;;;;46.30;23.30;;;;;;;-145.18;100.00;46625.22;4991739;28;20038;-73
2022/11/19 08:57:07;;;;;;;47.13;21.93;;;;;;;-145.18;100.00;46615.47;4998220;28;20113;-73
2022/11/19 08:59:32;;;;;;;39.83;20.30;;;;;;;-145.18;100.00;46640.88;4998197;28;20141;-73
2022/11/19 09:01:57;;;;;;;43.00;23.43;;;;;;;-145.18;100.00;46597.88;4992839;28;20037;-73
2022/11/19 09:04:22;;;;;;;47.27;24.23;;;;;;;-145.18;100.00;46593.97;5002477;28;20088;-73
2022/11/19 09:06:48;;;;;;;44.53;21.00;;;;;;;-145.18;100.00;46590.06;4992084;28;20085;-73
2022/11/19 09:09:13;;;;;;;47.33;23.23;;;;;;;-145.18;100.00;46590.06;4992652;28;20459;-73
2022/11/19 09:11:38;;;;;;;47.57;22.13;;;;;;;-145.18;100.00;46586.16;4992568;28;20061;-73
2022/11/19 09:14:04;;;;;;;46.57;23.80;;;;;;;-145.18;100.00;46593.97;4992682;28;20080;-74
2022/11/19 09:16:29;;;;;;;45.50;24.13;;;;;;;-145.18;100.00;46590.06;4992647;28;20034;-74
2022/11/19 09:18:55;;;;;;;50.80;24.50;;;;;;;-145.18;100.00;46584.22;4991363;28;20041;-73
2022/11/19 09:21:20;;;;;;;42.90;21.83;;;;;;;-145.18;100.00;46592.03;4992240;28;20500;-73
2022/11/19 09:23:45;;;;;;;45.13;21.80;;;;;;;-145.18;100.00;46590.06;4974451;28;20475;-74
2022/11/19 09:26:13;;;;;;;40.77;21.13;;;;;;;-145.18;100.00;46592.03;4992416;28;20121;-74
2022/11/19 09:28:39;;;;;;;43.72;21.58;;;;;;;-145.18;100.00;46601.78;4988560;28;20039;-74
2022/11/19 09:31:10;;;;;;;44.80;22.33;;;;;;;-145.18;100.00;46597.88;4991513;28;20410;-74
2022/11/19 09:33:38;;;;;;;43.10;22.20;;;;;;;-145.18;100.00;46599.84;4990335;28;20121;-73
2022/11/19 09:36:04;;;;;;;45.72;23.27;;;;;;;-145.18;100.00;46595.94;4992050;28;20514;-74
2022/11/19 09:38:34;;;;;;;45.13;23.27;;;;;;;-145.18;100.00;46603.75;4990432;28;20049;-73
2022/11/19 09:41:26;;;;;;;45.77;23.03;;;;;;;-145.18;100.00;46605.69;4971458;28;20295;-73
2022/11/19 09:44:01;;;;;;;40.95;20.77;;;;;;;-145.18;100.00;46599.84;4991399;28;20268;-73
2022/11/19 09:46:36;;;;;;;47.13;25.80;;;;;;;-145.18;100.00;46607.66;4991729;28;20027;-73
2022/11/19 09:49:08;;;;;;;40.90;21.03;;;;;;;-145.18;100.00;46609.59;4991225;28;20034;-74
2022/11/19 09:51:38;;;;;;;40.97;22.17;;;;;;;-145.18;100.00;46617.41;4990834;28;20041;-73
2022/11/19 09:54:14;;;;;;;37.93;18.33;;;;;;;-145.18;100.00;46625.22;4986563;28;20058;-72
2022/11/19 09:56:44;;;;;;;43.60;21.45;;;;;;;-145.18;100.00;46629.13;4982395;28;20272;-73
2022/11/19 09:59:26;;;;;;;44.60;21.47;;;;;;;-145.18;100.00;46627.19;4991355;28;20038;-73
2022/11/19 10:01:52;;;;;;;38.40;18.88;;;;;;;-145.18;100.00;46631.09;4990783;28;20335;-72
2022/11/19 10:04:21;;;;;;;41.13;22.95;;;;;;;-145.18;100.00;46633.06;4973457;28;20046;-73
2022/11/19 10:07:11;;;;;;;39.92;20.35;;;;;;;-145.18;100.00;46631.09;4990226;28;20026;-73
2022/11/19 10:09:51;;;;;;;45.65;22.00;;;;;;;-145.18;100.00;46631.09;4991292;28;20025;-73
2022/11/19 10:12:54;;;;;;;30.75;15.48;;;;;;;-145.18;100.00;46640.88;4986113;28;20026;-73
2022/11/19 10:15:32;;;;;;;43.88;22.27;;;;;;;-145.18;100.00;46640.88;4954420;28;20126;-72
2022/11/19 10:18:24;;;;;;;47.03;24.00;;;;;;;-145.18;100.00;46648.69;4990649;28;20129;-73
2022/11/19 10:21:01;;;;;;;44.92;20.23;;;;;;;-145.18;100.00;46656.50;4989320;28;20061;-73
2022/11/19 10:24:11;;;;;;;43.60;22.40;;;;;;;-145.18;100.00;46660.41;4990689;28;20069;-73
2022/11/19 10:26:39;;;;;;;41.45;21.27;;;;;;;-145.18;100.00;46662.34;4946301;29;20547;-73
2022/11/19 10:29:37;;;;;;;42.63;18.77;;;;;;;-145.18;100.00;46656.50;4984909;28;20043;-72
2022/11/19 10:32:30;;;;;;;41.92;21.25;;;;;;;-145.18;100.00;46660.41;4970067;28;20049;-73
2022/11/19 10:35:01;;;;;;;40.72;20.20;;;;;;;-145.18;100.00;46658.44;4990666;28;20026;-73
2022/11/19 10:37:34;;;;;;;39.00;18.55;;;;;;;-145.18;100.00;46656.50;4990874;28;20034;-73
2022/11/19 10:40:07;;;;;;;44.10;23.25;;;;;;;-145.18;100.00;46654.53;4990700;28;20034;-73
2022/11/19 10:42:39;;;;;;;37.65;18.73;;;;;;;-145.18;100.00;46648.69;4989554;28;20056;-73
2022/11/19 10:45:30;;;;;;;40.97;21.88;;;;;;;-145.18;100.00;46662.34;4989823;28;20018;-73
2022/11/19 10:48:19;;;;;;;40.00;21.45;;;;;;;-145.18;100.00;46654.53;4990388;28;20038;-73
2022/11/19 10:50:45;;;;;;;39.33;20.63;;;;;;;-145.18;100.00;46656.50;4990484;28;20030;-73
2022/11/19 10:53:32;;;;;;;39.73;20.80;;;;;;;-145.18;100.00;46650.63;4990402;28;20035;-73
2022/11/19 10:56:10;;;;;;;38.43;18.80;;;;;;;-145.18;100.00;46652.59;4990387;28;20037;-73
2022/11/19 10:58:41;;;;;;;41.80;21.15;;;;;;;-145.18;100.00;46650.63;4990266;28;20363;-73
2022/11/19 11:01:24;;;;;;;40.67;20.70;;;;;;;-145.18;100.00;46650.63;4990387;28;20022;-73
2022/11/19 11:03:59;;;;;;;42.33;20.52;;;;;;;-145.18;100.00;46656.50;4992795;28;20054;-73
2022/11/19 11:06:25;;;;;;;42.35;21.25;;;;;;;-145.18;100.00;46646.72;4994267;28;20050;-73
2022/11/19 11:08:51;;;;;;;39.07;20.57;;;;;;;-145.18;100.00;46648.69;4993494;28;20126;-73
2022/11/19 11:17:17;;;;;;;33.00;15.38;;;;;;;-145.18;100.00;46654.53;4992375;28;20040;-73
2022/11/19 11:19:43;;;;;;;40.05;19.35;;;;;;;-145.18;100.00;46658.44;4993529;28;20041;-73
2022/11/19 11:22:08;;;;;;;35.83;19.10;;;;;;;-145.18;100.00;46654.53;4993807;28;20034;-73
2022/11/19 11:24:36;;;;;;;37.27;18.53;;;;;;;-145.18;100.00;46652.59;4976253;28;20070;-73
2022/11/19 11:27:23;;;;;;;43.08;18.35;;;;;;;-145.18;100.00;46658.44;4993574;28;20094;-73
2022/11/19 11:29:48;;;;;;;40.15;19.50;;;;;;;-145.18;100.00;46654.53;4993814;28;20030;-73
2022/11/19 11:32:30;;;;;;;38.83;18.90;;;;;;;-145.18;100.00;46656.50;4992687;28;20030;-73
2022/11/19 11:34:56;;;;;;;45.65;19.80;;;;;;;-145.18;100.00;46648.69;4993589;28;20026;-73
2022/11/19 11:37:23;;;;;;;43.23;21.60;;;;;;;-145.18;100.00;46646.72;4976457;28;20386;-73
2022/11/19 11:39:53;;;;;;;43.03;20.88;;;;;;;-145.18;100.00;46652.59;4975799;28;20387;-73